createdAt,value
2019-05-07T00:00:07.376Z,24.70
2019-05-07T00:01:07.360Z,27.30
2019-05-07T00:02:07.377Z,25.70
2019-05-07T00:03:07.339Z,24.50
2019-05-07T00:04:07.330Z,28.10
2019-05-07T00:05:07.339Z,23.30
2019-05-07T00:06:07.308Z,23.30
2019-05-07T00:07:07.334Z,28.70
2019-05-07T00:08:07.294Z,27.10
2019-05-07T00:09:07.277Z,26.80
2019-05-07T00:10:07.301Z,25.20
2019-05-07T00:11:07.260Z,25.90
2019-05-07T00:12:07.238Z,27.80
2019-05-07T00:13:07.262Z,27.60
2019-05-07T00:14:07.230Z,26.00
2019-05-07T00:15:07.206Z,29.00
2019-05-07T00:16:07.204Z,28.60
2019-05-07T00:17:07.197Z,28.00
2019-05-07T00:18:07.195Z,24.40
2019-05-07T00:19:07.174Z,27.60
2019-05-07T00:20:07.150Z,31.30
2019-05-07T00:22:02.463Z,29.60
2019-05-07T00:23:02.930Z,28.60
2019-05-07T00:24:02.306Z,31.80
2019-05-07T00:25:03.093Z,31.60
2019-05-07T00:26:02.337Z,27.80
2019-05-07T00:27:02.785Z,27.50
2019-05-07T00:28:02.790Z,25.10
2019-05-07T00:29:02.306Z,29.40
2019-05-07T00:30:02.923Z,30.90
2019-05-07T00:31:02.844Z,33.70
2019-05-07T00:32:02.917Z,33.40
2019-05-07T00:33:02.777Z,27.30
2019-05-07T00:34:02.879Z,31.20
2019-05-07T00:35:02.499Z,30.50
2019-05-07T00:36:02.599Z,30.20
2019-05-07T00:37:02.213Z,26.50
2019-05-07T00:38:02.565Z,32.40
2019-05-07T00:39:02.804Z,32.20
2019-05-07T00:40:02.728Z,34.00
2019-05-07T00:41:02.836Z,32.00
2019-05-07T00:42:03.065Z,31.80
2019-05-07T00:43:02.680Z,31.30
2019-05-07T00:44:03.210Z,32.40
2019-05-07T00:45:14.164Z,28.70
2019-05-07T00:46:02.552Z,31.60
2019-05-07T00:47:02.189Z,30.90
2019-05-07T00:48:02.946Z,31.60
2019-05-07T00:49:02.382Z,31.10
2019-05-07T00:50:03.281Z,30.10
2019-05-07T00:51:02.295Z,32.90
2019-05-07T00:52:02.822Z,34.20
2019-05-07T00:53:02.133Z,33.20
2019-05-07T00:54:02.875Z,30.70
2019-05-07T00:55:02.962Z,32.20
2019-05-07T00:56:01.959Z,30.40
2019-05-07T00:57:03.075Z,32.10
2019-05-07T00:58:02.380Z,34.60
2019-05-07T00:59:02.216Z,30.40
2019-05-07T01:00:02.165Z,30.50
2019-05-07T01:01:02.561Z,33.00
2019-05-07T01:02:02.249Z,34.20
2019-05-07T01:03:03.024Z,32.30
2019-05-07T01:04:02.698Z,33.30
2019-05-07T01:05:03.003Z,36.70
2019-05-07T01:06:02.095Z,34.30
2019-05-07T01:07:02.710Z,36.70
2019-05-07T01:08:02.578Z,34.50
2019-05-07T01:09:03.163Z,31.80
2019-05-07T01:10:02.170Z,34.80
2019-05-07T01:11:02.236Z,37.20
2019-05-07T01:12:03.125Z,35.50
2019-05-07T01:13:02.703Z,34.50
2019-05-07T01:14:02.790Z,30.60
2019-05-07T01:15:02.852Z,33.80
2019-05-07T01:16:02.515Z,34.10
2019-05-07T01:17:02.449Z,34.60
2019-05-07T01:18:02.841Z,37.60
2019-05-07T01:19:01.897Z,34.80
2019-05-07T01:20:02.971Z,34.20
2019-05-07T01:21:02.390Z,37.30
2019-05-07T01:22:03.228Z,35.50
2019-05-07T01:23:02.609Z,38.60
2019-05-07T01:24:03.188Z,38.30
2019-05-07T01:25:02.270Z,34.30
2019-05-07T01:26:03.061Z,34.30
2019-05-07T01:27:02.167Z,33.50
2019-05-07T01:28:02.642Z,31.40
2019-05-07T01:29:02.981Z,34.50
2019-05-07T01:30:02.526Z,33.10
2019-05-07T01:31:02.173Z,31.40
2019-05-07T01:32:03.000Z,33.90
2019-05-07T01:33:02.829Z,34.90
2019-05-07T01:34:02.568Z,36.70
2019-05-07T01:35:02.438Z,36.60
2019-05-07T01:36:02.408Z,38.30
2019-05-07T01:37:02.682Z,39.60
2019-05-07T01:38:03.008Z,37.70
2019-05-07T01:39:02.666Z,35.30
2019-05-07T01:40:03.037Z,34.30
2019-05-07T01:41:02.879Z,36.40
2019-05-07T01:42:02.149Z,38.10
2019-05-07T01:43:02.562Z,32.70
2019-05-07T01:44:02.040Z,31.80
2019-05-07T01:45:02.419Z,37.50
2019-05-07T01:46:02.955Z,34.90
2019-05-07T01:47:02.546Z,38.90
2019-05-07T01:48:04.218Z,35.50
2019-05-07T01:49:02.882Z,39.00
2019-05-07T01:50:03.090Z,40.90
2019-05-07T01:51:03.217Z,39.50
2019-05-07T01:52:02.457Z,39.40
2019-05-07T01:53:00.838Z,37.10
2019-05-07T01:54:02.198Z,36.90
2019-05-07T01:55:03.108Z,38.20
2019-05-07T01:56:03.048Z,35.80
2019-05-07T01:57:02.853Z,33.40
2019-05-07T01:58:04.572Z,41.50
2019-05-07T01:59:02.428Z,36.60
2019-05-07T02:00:02.608Z,37.10
2019-05-07T02:01:02.810Z,38.90
2019-05-07T02:02:02.881Z,37.00
2019-05-07T02:03:02.692Z,41.90
2019-05-07T02:04:02.309Z,39.50
2019-05-07T02:05:03.007Z,41.50
2019-05-07T02:06:02.178Z,38.80
2019-05-07T02:07:02.653Z,39.80
2019-05-07T02:08:02.798Z,36.10
2019-05-07T02:09:02.377Z,36.30
2019-05-07T02:10:02.665Z,41.50
2019-05-07T02:11:02.116Z,38.00
2019-05-07T02:12:02.457Z,38.70
2019-05-07T02:13:02.266Z,37.80
2019-05-07T02:14:02.054Z,40.90
2019-05-07T02:15:02.697Z,38.60
2019-05-07T02:16:01.858Z,40.50
2019-05-07T02:17:02.744Z,37.50
2019-05-07T02:18:01.918Z,40.60
2019-05-07T02:19:02.173Z,39.70
2019-05-07T02:20:02.673Z,40.60
2019-05-07T02:21:00.534Z,40.50
2019-05-07T02:22:02.578Z,36.40
2019-05-07T02:23:02.593Z,38.90
2019-05-07T02:24:00.528Z,42.40
2019-05-07T02:25:00.499Z,44.60
2019-05-07T02:26:02.402Z,38.50
2019-05-07T02:27:02.829Z,35.30
2019-05-07T02:28:02.195Z,35.50
2019-05-07T02:29:02.705Z,33.70
2019-05-07T02:30:03.664Z,34.50
2019-05-07T02:31:00.429Z,33.70
2019-05-07T02:32:00.423Z,33.00
2019-05-07T02:33:03.416Z,35.60
2019-05-07T02:34:02.810Z,33.30
2019-05-07T02:35:03.677Z,35.70
2019-05-07T02:36:03.040Z,34.40
2019-05-07T02:37:03.783Z,35.80
2019-05-07T02:38:03.141Z,34.50
2019-05-07T02:39:00.343Z,35.20
2019-05-07T02:40:00.358Z,38.00
2019-05-07T02:41:02.730Z,43.20
2019-05-07T02:42:03.482Z,43.00
2019-05-07T02:43:02.903Z,43.00
2019-05-07T02:44:04.026Z,43.50
2019-05-07T02:45:03.710Z,43.00
2019-05-07T02:46:19.844Z,46.20
2019-05-07T02:47:04.057Z,41.40
2019-05-07T02:48:03.232Z,39.20
2019-05-07T02:49:02.906Z,38.10
2019-05-07T02:50:02.968Z,37.00
2019-05-07T02:51:00.222Z,38.20
2019-05-07T02:52:00.203Z,36.10
2019-05-07T02:53:00.223Z,39.80
2019-05-07T02:54:03.348Z,42.00
2019-05-07T02:55:03.496Z,42.80
2019-05-07T02:56:03.365Z,40.40
2019-05-07T02:57:03.230Z,41.80
2019-05-07T02:58:03.261Z,39.50
2019-05-07T02:59:00.132Z,35.20
2019-05-07T03:00:04.087Z,40.30
2019-05-07T03:01:00.130Z,42.40
2019-05-07T03:02:03.360Z,41.40
2019-05-07T03:03:00.150Z,40.00
2019-05-07T03:04:00.097Z,37.10
2019-05-07T03:05:00.073Z,39.80
2019-05-07T03:06:02.703Z,36.40
2019-05-07T03:07:00.050Z,47.70
2019-05-07T03:08:03.089Z,46.10
2019-05-07T03:09:02.996Z,45.50
2019-05-07T03:10:03.195Z,41.70
2019-05-07T03:11:03.037Z,43.20
2019-05-07T03:12:00.041Z,44.60
2019-05-07T03:13:02.733Z,43.70
2019-05-07T03:14:02.960Z,39.60
2019-05-07T03:14:59.959Z,35.60
2019-05-07T03:15:59.956Z,42.70
2019-05-07T03:17:02.940Z,34.90
2019-05-07T03:18:03.049Z,36.20
2019-05-07T03:18:59.933Z,38.20
2019-05-07T03:20:02.954Z,33.30
2019-05-07T03:21:03.184Z,33.10
2019-05-07T03:21:59.886Z,32.00
2019-05-07T03:23:02.972Z,33.70
2019-05-07T03:24:03.119Z,31.00
2019-05-07T03:25:02.999Z,33.60
2019-05-07T03:25:59.842Z,32.50
2019-05-07T03:27:02.869Z,30.30
2019-05-07T03:27:59.823Z,34.10
2019-05-07T03:28:59.832Z,37.20
2019-05-07T03:30:03.875Z,33.10
2019-05-07T03:30:59.784Z,39.10
2019-05-07T03:32:05.405Z,33.40
2019-05-07T03:33:06.385Z,33.20
2019-05-07T03:34:06.349Z,32.90
2019-05-07T03:35:05.980Z,34.30
2019-05-07T03:36:06.244Z,32.50
2019-05-07T03:37:05.609Z,39.00
2019-05-07T03:38:03.589Z,38.60
2019-05-07T03:39:03.446Z,30.10
2019-05-07T03:39:59.690Z,35.70
2019-05-07T03:40:59.679Z,33.40
2019-05-07T03:42:03.122Z,32.60
2019-05-07T03:43:04.870Z,33.00
2019-05-07T03:44:03.112Z,33.70
2019-05-07T03:45:03.385Z,31.80
2019-05-07T03:45:59.625Z,34.20
2019-05-07T03:47:03.216Z,37.30
2019-05-07T03:48:03.511Z,32.30
2019-05-07T03:48:59.598Z,33.90
2019-05-07T03:50:02.985Z,33.10
2019-05-07T03:50:59.571Z,32.60
2019-05-07T03:51:59.564Z,30.20
2019-05-07T03:53:02.098Z,34.30
2019-05-07T03:54:02.441Z,38.30
2019-05-07T03:54:59.547Z,31.00
2019-05-07T03:55:59.516Z,31.20
2019-05-07T03:57:07.426Z,33.20
2019-05-07T03:58:03.209Z,33.60
2019-05-07T03:58:59.489Z,32.60
2019-05-07T03:59:59.518Z,32.80
2019-05-07T04:00:59.483Z,33.20
2019-05-07T04:01:59.470Z,31.80
2019-05-07T04:02:59.468Z,33.00
2019-05-07T04:03:59.433Z,31.30
2019-05-07T04:04:59.427Z,37.30
2019-05-07T04:05:59.436Z,39.50
2019-05-07T04:06:59.396Z,38.40
2019-05-07T04:07:59.391Z,41.90
2019-05-07T04:08:59.385Z,37.40
2019-05-07T04:09:59.367Z,38.00
2019-05-07T04:10:59.373Z,33.50
2019-05-07T04:11:59.344Z,35.40
2019-05-07T04:12:59.342Z,33.50
2019-05-07T04:14:02.272Z,32.60
2019-05-07T04:14:59.311Z,30.20
2019-05-07T04:15:59.413Z,36.50
2019-05-07T04:17:14.507Z,33.60
2019-05-07T04:18:03.278Z,31.80
2019-05-07T04:18:59.275Z,34.60
2019-05-07T04:19:59.258Z,34.70
2019-05-07T04:20:59.275Z,31.20
2019-05-07T04:21:59.274Z,36.10
2019-05-07T04:22:59.236Z,35.50
2019-05-07T04:23:59.222Z,34.20
2019-05-07T04:24:59.207Z,37.20
2019-05-07T04:25:59.225Z,33.40
2019-05-07T04:26:59.184Z,33.50
2019-05-07T04:27:59.173Z,30.20
2019-05-07T04:28:59.165Z,34.30
2019-05-07T04:29:59.157Z,33.40
2019-05-07T04:30:59.166Z,36.10
2019-05-07T04:31:59.130Z,34.40
2019-05-07T04:32:59.126Z,36.90
2019-05-07T04:33:59.116Z,39.40
2019-05-07T04:34:59.098Z,37.50
2019-05-07T04:35:59.087Z,36.50
2019-05-07T04:36:59.095Z,34.90
2019-05-07T04:38:02.104Z,33.80
2019-05-07T04:39:02.873Z,35.50
2019-05-07T04:39:59.047Z,39.70
2019-05-07T04:40:59.033Z,37.40
2019-05-07T04:41:59.048Z,35.50
2019-05-07T04:42:59.011Z,38.10
2019-05-07T04:43:59.001Z,41.20
2019-05-07T04:44:58.992Z,45.20
2019-05-07T04:45:58.979Z,44.20
2019-05-07T04:46:58.988Z,41.30
2019-05-07T04:47:58.959Z,45.30
2019-05-07T04:48:58.948Z,46.70
2019-05-07T04:49:58.939Z,42.70
2019-05-07T04:50:58.928Z,41.90
2019-05-07T04:51:58.935Z,41.10
2019-05-07T04:52:58.904Z,44.90
2019-05-07T04:53:58.897Z,40.90
2019-05-07T04:54:58.886Z,37.30
2019-05-07T04:55:58.876Z,36.50
2019-05-07T04:56:58.925Z,36.40
2019-05-07T04:57:58.851Z,37.10
2019-05-07T04:58:58.840Z,37.70
2019-05-07T04:59:58.832Z,34.40
2019-05-07T05:00:58.820Z,35.40
2019-05-07T05:01:58.812Z,38.50
2019-05-07T05:02:58.819Z,40.50
2019-05-07T05:03:58.786Z,42.40
2019-05-07T05:04:58.788Z,36.00
2019-05-07T05:05:58.807Z,39.50
2019-05-07T05:06:58.757Z,37.80
2019-05-07T05:07:58.764Z,35.00
2019-05-07T05:08:58.819Z,36.80
2019-05-07T05:09:58.726Z,33.40
2019-05-07T05:10:58.721Z,38.30
2019-05-07T05:11:58.705Z,39.50
2019-05-07T05:12:58.713Z,37.10
2019-05-07T05:13:58.686Z,38.50
2019-05-07T05:14:58.667Z,41.00
2019-05-07T05:15:58.658Z,38.30
2019-05-07T05:16:58.647Z,42.40
2019-05-07T05:17:58.683Z,41.70
2019-05-07T05:18:58.639Z,43.50
2019-05-07T05:20:00.585Z,40.50
2019-05-07T05:20:58.611Z,40.80
2019-05-07T05:21:58.596Z,39.80
2019-05-07T05:22:58.591Z,45.10
2019-05-07T05:23:58.599Z,38.10
2019-05-07T05:24:58.564Z,42.60
2019-05-07T05:25:58.553Z,42.70
2019-05-07T05:26:58.545Z,41.60
2019-05-07T05:27:58.543Z,44.30
2019-05-07T05:28:58.546Z,41.10
2019-05-07T05:29:58.516Z,44.70
2019-05-07T05:30:58.501Z,46.30
2019-05-07T05:31:58.502Z,45.20
2019-05-07T05:33:01.243Z,39.70
2019-05-07T05:33:58.487Z,46.50
2019-05-07T05:34:58.466Z,47.10
2019-05-07T05:35:58.459Z,44.00
2019-05-07T05:36:58.438Z,48.10
2019-05-07T05:37:58.428Z,49.10
2019-05-07T05:38:58.442Z,49.80
2019-05-07T05:40:06.188Z,52.40
2019-05-07T05:40:59.400Z,47.60
2019-05-07T05:41:58.389Z,49.30
2019-05-07T05:42:58.376Z,47.80
2019-05-07T05:43:58.391Z,48.60
2019-05-07T05:44:58.354Z,47.30
2019-05-07T05:45:58.361Z,44.10
2019-05-07T05:46:58.336Z,46.20
2019-05-07T05:48:04.753Z,43.40
2019-05-07T05:48:59.342Z,35.30
2019-05-07T05:49:58.305Z,42.80
2019-05-07T05:50:58.295Z,43.80
2019-05-07T05:51:58.294Z,46.60
2019-05-07T05:52:58.273Z,50.10
2019-05-07T05:53:58.282Z,38.10
2019-05-07T05:54:58.251Z,41.10
2019-05-07T05:55:58.245Z,45.10
2019-05-07T05:56:58.228Z,44.70
2019-05-07T05:57:58.219Z,47.20
2019-05-07T05:58:58.232Z,45.10
2019-05-07T05:59:58.198Z,45.40
2019-05-07T06:00:58.190Z,46.30
2019-05-07T06:01:58.178Z,47.50
2019-05-07T06:02:58.168Z,44.80
2019-05-07T06:03:58.156Z,45.10
2019-05-07T06:04:58.163Z,48.30
2019-05-07T06:05:58.139Z,43.40
2019-05-07T06:07:08.777Z,47.50
2019-05-07T06:07:59.119Z,25.50
2019-05-07T06:08:58.102Z,31.70
2019-05-07T06:09:58.115Z,45.20
2019-05-07T06:10:58.082Z,45.00
2019-05-07T06:11:58.074Z,47.70
2019-05-07T06:12:58.059Z,44.20
2019-05-07T06:13:58.061Z,43.10
2019-05-07T06:14:58.057Z,26.70
2019-05-07T06:15:58.060Z,27.50
2019-05-07T06:16:58.016Z,35.70
2019-05-07T06:17:58.008Z,37.70
2019-05-07T06:18:57.996Z,42.30
2019-05-07T06:19:58.029Z,40.50
2019-05-07T06:20:57.978Z,45.60
2019-05-07T06:21:57.964Z,50.20
2019-05-07T06:22:57.956Z,47.30
2019-05-07T06:23:57.943Z,47.10
2019-05-07T06:24:57.939Z,37.40
2019-05-07T06:25:57.941Z,44.90
2019-05-07T06:26:57.910Z,42.30
2019-05-07T06:27:57.902Z,44.90
2019-05-07T06:28:57.898Z,39.90
2019-05-07T06:29:57.882Z,44.20
2019-05-07T06:30:57.890Z,44.40
2019-05-07T06:31:57.859Z,27.50
2019-05-07T06:33:05.398Z,35.80
2019-05-07T06:33:57.848Z,40.80
2019-05-07T06:34:57.827Z,44.60
2019-05-07T06:35:57.846Z,45.50
2019-05-07T06:36:57.835Z,50.50
2019-05-07T06:37:57.794Z,46.80
2019-05-07T06:38:57.784Z,42.10
2019-05-07T06:39:57.774Z,34.70
2019-05-07T06:40:57.783Z,44.90
2019-05-07T06:41:57.763Z,48.20
2019-05-07T06:42:57.742Z,44.10
2019-05-07T06:43:57.732Z,47.00
2019-05-07T06:44:57.722Z,37.90
2019-05-07T06:45:57.769Z,47.90
2019-05-07T06:46:57.702Z,37.60
2019-05-07T06:47:57.688Z,35.20
2019-05-07T06:48:57.677Z,39.10
2019-05-07T06:49:57.690Z,45.60
2019-05-07T06:50:57.726Z,45.40
2019-05-07T06:51:57.650Z,44.60
2019-05-07T06:52:57.637Z,41.40
2019-05-07T06:53:57.626Z,29.80
2019-05-07T06:54:57.648Z,28.60
2019-05-07T06:55:57.625Z,39.40
2019-05-07T06:56:57.624Z,36.30
2019-05-07T06:57:57.585Z,34.10
2019-05-07T06:58:57.573Z,40.80
2019-05-07T06:59:57.591Z,41.20
2019-05-07T07:00:57.577Z,44.80
2019-05-07T07:01:57.563Z,45.10
2019-05-07T07:02:57.534Z,36.00
2019-05-07T07:03:57.548Z,31.10
2019-05-07T07:04:57.517Z,31.60
2019-05-07T07:05:57.522Z,40.70
2019-05-07T07:06:57.509Z,42.40
2019-05-07T07:07:57.498Z,45.50
2019-05-07T07:08:57.481Z,42.70
2019-05-07T07:09:57.457Z,38.00
2019-05-07T07:10:57.471Z,42.20
2019-05-07T07:11:57.459Z,42.40
2019-05-07T07:12:57.438Z,41.60
2019-05-07T07:13:57.417Z,43.40
2019-05-07T07:14:58.162Z,34.80
2019-05-07T07:15:57.413Z,44.20
2019-05-07T07:16:57.422Z,43.40
2019-05-07T07:17:57.385Z,32.80
2019-05-07T07:18:57.362Z,39.00
2019-05-07T07:19:57.377Z,42.30
2019-05-07T07:20:57.345Z,39.10
2019-05-07T07:21:57.358Z,43.90
2019-05-07T07:22:57.344Z,44.20
2019-05-07T07:23:57.442Z,45.80
2019-05-07T07:24:57.368Z,44.30
2019-05-07T07:25:57.337Z,43.60
2019-05-07T07:26:57.277Z,47.70
2019-05-07T07:27:57.287Z,43.50
2019-05-07T07:28:57.259Z,42.60
2019-05-07T07:29:57.253Z,43.30
2019-05-07T07:30:57.237Z,39.60
2019-05-07T07:31:57.225Z,44.20
2019-05-07T07:32:57.233Z,41.90
2019-05-07T07:33:57.204Z,39.90
2019-05-07T07:34:57.195Z,41.10
2019-05-07T07:35:57.182Z,37.90
2019-05-07T07:37:06.090Z,41.20
2019-05-07T07:37:58.197Z,33.80
2019-05-07T07:38:57.152Z,40.00
2019-05-07T07:39:57.140Z,42.70
2019-05-07T07:40:57.130Z,46.30
2019-05-07T07:41:57.127Z,40.40
2019-05-07T07:42:57.145Z,34.50
2019-05-07T07:43:57.101Z,38.70
2019-05-07T07:44:57.088Z,37.70
2019-05-07T07:45:57.078Z,46.30
2019-05-07T07:46:57.073Z,44.90
2019-05-07T07:47:57.058Z,46.90
2019-05-07T07:49:08.026Z,40.20
2019-05-07T07:49:58.036Z,36.30
2019-05-07T07:50:57.025Z,36.10
2019-05-07T07:51:57.016Z,39.90
2019-05-07T07:52:57.004Z,44.30
2019-05-07T07:53:57.013Z,43.00
2019-05-07T07:54:56.982Z,39.20
2019-05-07T07:55:56.985Z,44.70
2019-05-07T07:56:56.976Z,36.80
2019-05-07T07:57:56.950Z,42.50
2019-05-07T07:58:56.963Z,35.70
2019-05-07T07:59:56.929Z,42.20
2019-05-07T08:00:56.921Z,39.70
2019-05-07T08:01:56.908Z,42.20
2019-05-07T08:02:56.898Z,37.40
2019-05-07T08:03:56.916Z,35.30
2019-05-07T08:04:56.905Z,36.60
2019-05-07T08:05:56.869Z,38.30
2019-05-07T08:06:56.858Z,31.80
2019-05-07T08:07:56.846Z,36.20
2019-05-07T08:08:56.837Z,36.30
2019-05-07T08:09:56.845Z,39.30
2019-05-07T08:10:56.813Z,40.70
2019-05-07T08:11:56.803Z,36.60
2019-05-07T08:12:56.795Z,40.10
2019-05-07T08:13:56.792Z,37.40
2019-05-07T08:15:13.563Z,39.40
2019-05-07T08:15:57.763Z,40.20
2019-05-07T08:16:56.757Z,40.70
2019-05-07T08:17:56.739Z,38.70
2019-05-07T08:18:56.728Z,31.20
2019-05-07T08:19:56.739Z,40.00
2019-05-07T08:20:56.707Z,38.00
2019-05-07T08:21:56.699Z,37.80
2019-05-07T08:22:56.696Z,34.30
2019-05-07T08:23:56.677Z,36.60
2019-05-07T08:24:56.689Z,36.90
2019-05-07T08:25:56.654Z,41.90
2019-05-07T08:26:56.645Z,39.70
2019-05-07T08:27:58.285Z,39.00
2019-05-07T08:28:56.623Z,38.20
2019-05-07T08:29:56.635Z,42.90
2019-05-07T08:30:56.602Z,44.70
2019-05-07T08:31:56.605Z,43.80
2019-05-07T08:32:56.580Z,43.50
2019-05-07T08:33:56.573Z,40.80
2019-05-07T08:34:56.585Z,43.90
2019-05-07T08:35:56.550Z,38.60
2019-05-07T08:36:56.539Z,44.80
2019-05-07T08:37:56.526Z,47.90
2019-05-07T08:38:56.517Z,46.90
2019-05-07T08:39:56.509Z,51.80
2019-05-07T08:40:56.528Z,39.60
2019-05-07T08:41:56.485Z,49.50
2019-05-07T08:42:56.476Z,41.80
2019-05-07T08:44:08.330Z,44.70
2019-05-07T08:44:57.513Z,41.60
2019-05-07T08:45:56.460Z,39.50
2019-05-07T08:46:56.431Z,42.80
2019-05-07T08:47:56.419Z,39.10
2019-05-07T08:48:56.409Z,44.60
2019-05-07T08:49:56.412Z,40.60
2019-05-07T08:50:56.408Z,40.20
2019-05-07T08:51:56.379Z,41.00
2019-05-07T08:52:56.372Z,39.70
2019-05-07T08:53:56.355Z,40.70
2019-05-07T08:54:56.350Z,40.40
2019-05-07T08:55:56.359Z,43.80
2019-05-07T08:56:56.335Z,43.80
2019-05-07T08:57:56.315Z,44.60
2019-05-07T08:58:56.337Z,45.30
2019-05-07T09:00:01.159Z,42.20
2019-05-07T09:00:57.317Z,42.30
2019-05-07T09:01:56.271Z,44.60
2019-05-07T09:02:56.261Z,41.20
2019-05-07T09:03:56.253Z,38.10
2019-05-07T09:04:56.242Z,34.80
2019-05-07T09:05:56.231Z,37.40
2019-05-07T09:06:56.237Z,40.50
2019-05-07T09:07:56.221Z,33.60
2019-05-07T09:08:56.197Z,36.80
2019-05-07T09:09:56.190Z,40.60
2019-05-07T09:10:56.176Z,40.70
2019-05-07T09:11:56.184Z,41.30
2019-05-07T09:12:56.154Z,42.70
2019-05-07T09:13:56.144Z,45.00
2019-05-07T09:14:56.132Z,34.40
2019-05-07T09:15:56.126Z,37.50
2019-05-07T09:16:56.148Z,36.50
2019-05-07T09:17:56.102Z,39.50
2019-05-07T09:18:56.094Z,38.00
2019-05-07T09:19:56.086Z,40.00
2019-05-07T09:20:56.071Z,35.80
2019-05-07T09:21:56.086Z,34.40
2019-05-07T09:22:56.049Z,42.60
2019-05-07T09:23:56.038Z,36.40
2019-05-07T09:24:56.026Z,39.00
2019-05-07T09:25:56.031Z,38.60
2019-05-07T09:26:56.025Z,38.70
2019-05-07T09:27:55.995Z,35.10
2019-05-07T09:28:55.986Z,38.30
2019-05-07T09:29:55.980Z,34.60
2019-05-07T09:30:55.962Z,39.50
2019-05-07T09:31:55.976Z,35.20
2019-05-07T09:32:55.945Z,37.00
2019-05-07T09:33:55.935Z,39.30
2019-05-07T09:34:55.932Z,35.10
2019-05-07T09:35:55.916Z,36.30
2019-05-07T09:36:56.642Z,35.10
2019-05-07T09:37:55.891Z,32.70
2019-05-07T09:38:58.999Z,35.40
2019-05-07T09:39:55.870Z,38.30
2019-05-07T09:40:57.105Z,37.20
2019-05-07T09:41:55.848Z,36.70
2019-05-07T09:42:55.860Z,34.50
2019-05-07T09:43:55.841Z,35.30
2019-05-07T09:44:55.815Z,32.90
2019-05-07T09:45:55.805Z,29.90
2019-05-07T09:46:55.793Z,28.80
2019-05-07T09:47:55.802Z,29.20
2019-05-07T09:48:55.773Z,32.80
2019-05-07T09:50:04.639Z,28.60
2019-05-07T09:50:56.751Z,30.20
2019-05-07T09:51:55.743Z,29.30
2019-05-07T09:52:55.755Z,26.50
2019-05-07T09:53:55.718Z,27.80
2019-05-07T09:54:55.709Z,29.10
2019-05-07T09:55:55.697Z,28.10
2019-05-07T09:56:55.685Z,28.80
2019-05-07T09:57:55.715Z,28.60
2019-05-07T09:58:55.665Z,28.20
2019-05-07T09:59:55.654Z,27.80
2019-05-07T10:00:55.643Z,28.60
2019-05-07T10:01:55.638Z,27.10
2019-05-07T10:02:56.764Z,29.00
2019-05-07T10:03:55.633Z,30.60
2019-05-07T10:04:55.605Z,29.30
2019-05-07T10:05:55.589Z,33.10
2019-05-07T10:06:55.579Z,31.60
2019-05-07T10:07:55.575Z,29.50
2019-05-07T10:08:55.581Z,26.00
2019-05-07T10:09:55.547Z,24.60
2019-05-07T10:10:55.545Z,28.00
2019-05-07T10:11:55.529Z,27.00
2019-05-07T10:12:55.527Z,24.30
2019-05-07T10:13:55.523Z,25.70
2019-05-07T10:14:55.495Z,25.80
2019-05-07T10:15:55.486Z,27.30
2019-05-07T10:16:55.473Z,24.10
2019-05-07T10:17:55.462Z,26.50
2019-05-07T10:18:55.473Z,25.20
2019-05-07T10:19:55.456Z,26.50
2019-05-07T10:20:55.431Z,29.80
2019-05-07T10:21:55.419Z,27.40
2019-05-07T10:22:55.411Z,29.20
2019-05-07T10:23:55.422Z,27.80
2019-05-07T10:24:55.391Z,29.50
2019-05-07T10:25:55.378Z,28.80
2019-05-07T10:26:55.368Z,26.50
2019-05-07T10:27:55.359Z,31.60
2019-05-07T10:28:55.357Z,27.60
2019-05-07T10:29:55.361Z,28.50
2019-05-07T10:30:55.326Z,28.50
2019-05-07T10:31:55.313Z,25.10
2019-05-07T10:32:55.303Z,27.60
2019-05-07T10:33:55.294Z,25.10
2019-05-07T10:34:55.302Z,27.00
2019-05-07T10:35:55.270Z,25.00
2019-05-07T10:36:55.264Z,25.60
2019-05-07T10:37:55.261Z,25.60
2019-05-07T10:38:55.240Z,27.70
2019-05-07T10:39:55.252Z,24.20
2019-05-07T10:40:55.219Z,24.00
2019-05-07T10:41:57.737Z,26.80
2019-05-07T10:42:55.197Z,24.90
2019-05-07T10:43:55.190Z,22.00
2019-05-07T10:44:55.202Z,23.40
2019-05-07T10:45:55.163Z,26.20
2019-05-07T10:46:55.166Z,26.30
2019-05-07T10:47:55.144Z,23.70
2019-05-07T10:48:55.132Z,23.50
2019-05-07T10:49:55.122Z,26.40
2019-05-07T10:50:55.134Z,23.00
2019-05-07T10:51:55.102Z,22.30
2019-05-07T10:52:55.091Z,24.00
2019-05-07T10:53:55.079Z,25.70
2019-05-07T10:54:59.606Z,23.80
2019-05-07T10:55:55.074Z,23.50
2019-05-07T10:56:55.047Z,22.40
2019-05-07T10:57:55.036Z,24.00
2019-05-07T10:58:55.024Z,23.20
2019-05-07T10:59:55.039Z,24.00
2019-05-07T11:00:55.008Z,22.80
2019-05-07T11:01:54.998Z,22.00
2019-05-07T11:02:54.985Z,21.80
2019-05-07T11:03:54.975Z,23.90
2019-05-07T11:04:55.000Z,23.00
2019-05-07T11:05:54.953Z,22.70
2019-05-07T11:06:54.941Z,22.70
2019-05-07T11:07:54.938Z,19.10
2019-05-07T11:08:54.926Z,16.70
2019-05-07T11:09:54.910Z,21.60
2019-05-07T11:10:54.918Z,16.70
2019-05-07T11:11:54.892Z,20.60
2019-05-07T11:12:54.881Z,19.50
2019-05-07T11:13:56.150Z,17.20
2019-05-07T11:14:54.857Z,19.90
2019-05-07T11:15:54.867Z,17.10
2019-05-07T11:16:54.836Z,20.20
2019-05-07T11:17:54.828Z,16.00
2019-05-07T11:18:54.813Z,20.10
2019-05-07T11:19:54.805Z,16.30
2019-05-07T11:20:54.812Z,17.10
2019-05-07T11:21:54.783Z,19.00
2019-05-07T11:22:54.783Z,18.90
2019-05-07T11:23:54.761Z,20.10
2019-05-07T11:24:54.750Z,16.90
2019-05-07T11:25:54.761Z,15.20
2019-05-07T11:26:54.727Z,17.80
2019-05-07T11:27:54.716Z,20.70
2019-05-07T11:28:54.707Z,16.00
2019-05-07T11:29:54.703Z,16.70
2019-05-07T11:30:54.716Z,16.90
2019-05-07T11:31:54.688Z,16.10
2019-05-07T11:32:54.664Z,16.80
2019-05-07T11:33:54.653Z,15.70
2019-05-07T11:34:56.385Z,15.80
2019-05-07T11:35:54.651Z,18.30
2019-05-07T11:36:54.623Z,18.40
2019-05-07T11:37:54.610Z,16.40
2019-05-07T11:38:54.601Z,19.90
2019-05-07T11:39:54.590Z,19.60
2019-05-07T11:40:54.608Z,23.00
2019-05-07T11:41:54.571Z,19.90
2019-05-07T11:42:54.572Z,18.00
2019-05-07T11:43:54.549Z,18.50
2019-05-07T11:44:55.000Z,20.60
2019-05-07T11:45:54.528Z,18.90
2019-05-07T11:46:54.539Z,16.70
2019-05-07T11:47:54.505Z,15.70
2019-05-07T11:48:54.495Z,21.10
2019-05-07T11:49:54.495Z,18.90
2019-05-07T11:51:03.754Z,20.10
2019-05-07T11:51:55.482Z,18.80
2019-05-07T11:52:54.455Z,20.10
2019-05-07T11:53:54.440Z,20.60
2019-05-07T11:54:54.429Z,21.00
2019-05-07T11:55:54.423Z,20.30
2019-05-07T11:57:02.651Z,21.50
2019-05-07T11:57:54.420Z,19.90
2019-05-07T11:58:54.887Z,19.00
2019-05-07T11:59:54.484Z,18.00
2019-05-07T12:00:54.399Z,22.40
2019-05-07T12:01:54.374Z,18.40
2019-05-07T12:02:54.349Z,18.50
2019-05-07T12:03:54.334Z,20.40
2019-05-07T12:04:54.339Z,20.20
2019-05-07T12:05:54.346Z,20.80
2019-05-07T12:06:54.341Z,16.30
2019-05-07T12:07:54.304Z,18.30
2019-05-07T12:08:54.286Z,19.80
2019-05-07T12:09:54.272Z,17.50
2019-05-07T12:10:54.288Z,19.40
2019-05-07T12:11:54.287Z,18.10
2019-05-07T12:12:54.240Z,18.90
2019-05-07T12:13:57.245Z,16.60
2019-05-07T12:14:54.257Z,21.10
2019-05-07T12:15:54.258Z,17.70
2019-05-07T12:16:54.307Z,17.60
2019-05-07T12:17:54.197Z,17.60
2019-05-07T12:18:55.500Z,15.60
2019-05-07T12:19:54.163Z,16.50
2019-05-07T12:20:54.314Z,12.10
2019-05-07T12:21:54.160Z,16.20
2019-05-07T12:22:54.131Z,20.80
2019-05-07T12:23:54.122Z,15.10
2019-05-07T12:24:54.114Z,16.80
2019-05-07T12:25:54.109Z,13.00
2019-05-07T12:26:54.108Z,19.10
2019-05-07T12:27:54.080Z,18.40
2019-05-07T12:28:54.103Z,16.70
2019-05-07T12:29:54.088Z,16.10
2019-05-07T12:30:54.753Z,14.70
2019-05-07T12:31:55.735Z,14.90
2019-05-07T12:32:54.025Z,16.40
2019-05-07T12:33:54.129Z,14.30
2019-05-07T12:34:54.006Z,15.50
2019-05-07T12:35:53.993Z,18.10
2019-05-07T12:36:53.981Z,16.30
2019-05-07T12:37:53.994Z,17.20
2019-05-07T12:38:54.741Z,18.10
2019-05-07T12:39:54.681Z,18.80
2019-05-07T12:40:53.988Z,16.90
2019-05-07T12:41:53.932Z,15.40
2019-05-07T12:42:53.942Z,16.00
2019-05-07T12:43:53.913Z,17.70
2019-05-07T12:44:53.999Z,16.10
2019-05-07T12:45:54.038Z,13.20
2019-05-07T12:46:53.880Z,13.70
2019-05-07T12:47:54.259Z,12.80
2019-05-07T12:48:53.866Z,11.90
2019-05-07T12:49:53.849Z,13.70
2019-05-07T12:50:53.872Z,12.80
2019-05-07T12:51:53.829Z,12.10
2019-05-07T12:52:53.839Z,12.70